Time;durP1;ratioP1;P1;durP2;ratioP2;P2;SDS_P1;SDS_P2;PMS_P1;PMS_P2;Temp;Humidity;BMP_temperature;BMP_pressure;BME280_temperature;BME280_humidity;BME280_pressure;Samples;Min_cycle;Max_cycle;Signal;HPM_P1;HPM_P2
2023/02/19 00:02:44;;;;;;;19.58;8.82;;;;;;;;;;10342666;28;20033;-77
2023/02/19 00:07:44;;;;;;;18.58;7.53;;;;;;;;;;10362210;28;20056;-80
2023/02/19 00:12:44;;;;;;;18.48;8.43;;;;;;;;;;10358889;28;20117;-80
2023/02/19 00:17:44;;;;;;;17.92;7.75;;;;;;;;;;10353037;28;20354;-75
2023/02/19 00:22:45;;;;;;;19.08;7.55;;;;;;;;;;10358719;28;20439;-75
2023/02/19 00:27:45;;;;;;;17.85;9.65;;;;;;;;;;10337186;28;20050;-79
2023/02/19 00:32:48;;;;;;;22.10;8.98;;;;;;;;;;10358232;28;20018;-76
2023/02/19 00:37:49;;;;;;;16.63;8.55;;;;;;;;;;10358872;28;20037;-80
2023/02/19 00:42:49;;;;;;;26.25;9.48;;;;;;;;;;10360256;28;20033;-80
2023/02/19 00:47:49;;;;;;;24.40;9.82;;;;;;;;;;10358829;28;20044;-75
2023/02/19 00:52:50;;;;;;;21.85;10.38;;;;;;;;;;10359745;28;20052;-82
2023/02/19 00:57:50;;;;;;;19.70;10.27;;;;;;;;;;10358872;28;20030;-80
2023/02/19 01:02:50;;;;;;;19.42;9.38;;;;;;;;;;10357946;28;20029;-77
2023/02/19 01:07:50;;;;;;;22.23;10.10;;;;;;;;;;10346892;28;20043;-79
2023/02/19 01:12:51;;;;;;;29.80;11.18;;;;;;;;;;10365957;28;20022;-77
2023/02/19 01:17:51;;;;;;;21.95;10.90;;;;;;;;;;10359163;28;20022;-78
2023/02/19 01:22:51;;;;;;;21.83;11.38;;;;;;;;;;10355255;28;20169;-73
2023/02/19 01:27:51;;;;;;;23.67;11.20;;;;;;;;;;10358515;28;20085;-75
2023/02/19 01:32:52;;;;;;;28.50;12.20;;;;;;;;;;10358012;28;20492;-79
2023/02/19 01:37:52;;;;;;;22.35;12.63;;;;;;;;;;10357195;28;20472;-79
2023/02/19 01:42:52;;;;;;;29.10;12.40;;;;;;;;;;10362403;28;20092;-78
2023/02/19 01:48:08;;;;;;;23.70;12.93;;;;;;;;;;10366042;28;20117;-79
2023/02/19 01:53:10;;;;;;;25.23;13.50;;;;;;;;;;10335356;28;20080;-75
2023/02/19 01:58:16;;;;;;;33.35;14.70;;;;;;;;;;10364454;28;20131;-80
2023/02/19 02:03:17;;;;;;;34.63;15.02;;;;;;;;;;10357989;28;20021;-82
2023/02/19 02:13:37;;;;;;;31.27;14.23;;;;;;;;;;10365285;28;20034;-79
2023/02/19 02:18:38;;;;;;;26.00;15.18;;;;;;;;;;10348313;28;20030;-81
2023/02/19 02:24:01;;;;;;;30.02;12.70;;;;;;;;;;10325998;28;20030;-81
2023/02/19 02:29:01;;;;;;;25.92;11.95;;;;;;;;;;10335556;28;20050;-76
2023/02/19 02:34:08;;;;;;;26.67;13.43;;;;;;;;;;10363841;28;20406;-78
2023/02/19 02:39:11;;;;;;;19.58;11.60;;;;;;;;;;10363411;28;20021;-75
2023/02/19 02:44:12;;;;;;;26.30;10.52;;;;;;;;;;10362855;28;20480;-79
2023/02/19 02:49:19;;;;;;;17.85;9.88;;;;;;;;;;10366324;28;20037;-83
2023/02/19 02:59:44;;;;;;;18.80;8.68;;;;;;;;;;10331933;28;20018;-79
2023/02/19 03:10:09;;;;;;;10.57;6.40;;;;;;;;;;10367616;28;20026;-78
2023/02/19 03:20:30;;;;;;;16.65;6.80;;;;;;;;;;10392934;28;20034;-80
2023/02/19 03:30:52;;;;;;;19.45;7.63;;;;;;;;;;10327169;28;20054;-79
2023/02/19 03:35:57;;;;;;;20.55;8.82;;;;;;;;;;10322990;28;20026;-74
2023/02/19 03:41:04;;;;;;;20.52;8.60;;;;;;;;;;10347276;28;20038;-77
2023/02/19 03:46:23;;;;;;;24.08;8.32;;;;;;;;;;10364916;28;20172;-78
2023/02/19 03:51:31;;;;;;;17.83;9.05;;;;;;;;;;10362542;28;20030;-78
2023/02/19 03:56:31;;;;;;;;;;;;;;;;;;10359860;28;20053;-77
2023/02/19 04:01:34;;;;;;;20.52;9.35;;;;;;;;;;10359501;28;19906;-78
2023/02/19 04:06:36;;;;;;;22.02;8.98;;;;;;;;;;10361228;28;20349;-79
2023/02/19 04:11:37;;;;;;;20.65;8.68;;;;;;;;;;10331083;28;20038;-74
2023/02/19 04:16:41;;;;;;;25.23;10.32;;;;;;;;;;10361262;28;20041;-79
2023/02/19 04:21:42;;;;;;;33.25;11.52;;;;;;;;;;10361517;28;20025;-75
2023/02/19 04:26:43;;;;;;;28.48;12.10;;;;;;;;;;10359947;28;20133;-81
2023/02/19 04:31:44;;;;;;;21.75;10.98;;;;;;;;;;10359952;28;20026;-78
2023/02/19 04:36:44;;;;;;;28.52;11.95;;;;;;;;;;10358854;28;20030;-80
2023/02/19 04:41:44;;;;;;;30.27;13.00;;;;;;;;;;10359709;28;20022;-81
2023/02/19 04:46:44;;;;;;;25.20;12.10;;;;;;;;;;10359805;28;20530;-79
2023/02/19 04:51:45;;;;;;;25.20;11.98;;;;;;;;;;10358564;28;20018;-81
2023/02/19 04:56:45;;;;;;;26.05;12.43;;;;;;;;;;10360525;28;20040;-75
2023/02/19 05:01:45;;;;;;;31.90;12.73;;;;;;;;;;10358906;28;20021;-79
2023/02/19 05:06:45;;;;;;;28.45;14.65;;;;;;;;;;10376710;28;20029;-74
2023/02/19 05:11:46;;;;;;;30.08;14.07;;;;;;;;;;10349802;28;20699;-77
2023/02/19 05:16:46;;;;;;;52.28;17.52;;;;;;;;;;10346639;28;20483;-82
2023/02/19 05:21:46;;;;;;;33.53;14.07;;;;;;;;;;10359776;28;20025;-76
2023/02/19 05:26:47;;;;;;;40.38;13.95;;;;;;;;;;10361655;28;20045;-80
2023/02/19 05:31:48;;;;;;;39.63;15.32;;;;;;;;;;10360097;28;20014;-74
2023/02/19 05:36:49;;;;;;;38.70;15.15;;;;;;;;;;10360820;28;20044;-80
2023/02/19 05:41:50;;;;;;;35.75;13.40;;;;;;;;;;10363718;28;20030;-75
2023/02/19 05:46:50;;;;;;;31.70;14.60;;;;;;;;;;10363298;28;20028;-81
2023/02/19 05:51:50;;;;;;;26.05;13.07;;;;;;;;;;10362497;28;20022;-79
2023/02/19 05:56:51;;;;;;;20.47;10.83;;;;;;;;;;10358318;28;20045;-79
2023/02/19 06:01:52;;;;;;;24.52;12.07;;;;;;;;;;10359747;28;20122;-78
2023/02/19 06:06:52;;;;;;;28.23;12.48;;;;;;;;;;10365116;28;20025;-77
2023/02/19 06:11:53;;;;;;;21.25;9.38;;;;;;;;;;10351995;28;20503;-81
2023/02/19 06:16:53;;;;;;;27.90;11.88;;;;;;;;;;10355618;28;20496;-75
2023/02/19 06:21:53;;;;;;;20.65;9.18;;;;;;;;;;10362484;28;20439;-77
2023/02/19 06:26:53;;;;;;;25.30;9.40;;;;;;;;;;10348603;28;20428;-80
2023/02/19 06:31:54;;;;;;;21.75;8.18;;;;;;;;;;10362925;28;20484;-75
2023/02/19 06:36:54;;;;;;;16.20;8.32;;;;;;;;;;10361940;28;20558;-76
2023/02/19 06:41:55;;;;;;;22.42;9.07;;;;;;;;;;10334936;28;20032;-74
2023/02/19 06:46:55;;;;;;;26.45;8.75;;;;;;;;;;10336488;28;20064;-74
2023/02/19 06:51:58;;;;;;;23.27;8.57;;;;;;;;;;10332403;28;20014;-76
2023/02/19 06:56:59;;;;;;;36.63;10.45;;;;;;;;;;10363020;28;20020;-79
2023/02/19 07:01:59;;;;;;;20.35;9.70;;;;;;;;;;10356899;28;20042;-80
2023/02/19 07:07:00;;;;;;;20.95;9.52;;;;;;;;;;10340026;28;20022;-81
2023/02/19 07:12:00;;;;;;;23.95;6.82;;;;;;;;;;10335190;28;20026;-79
2023/02/19 07:17:00;;;;;;;10.43;5.97;;;;;;;;;;10336190;28;20171;-76
2023/02/19 07:22:00;;;;;;;14.35;5.97;;;;;;;;;;10343325;23;20141;-74
2023/02/19 07:27:01;;;;;;;10.52;5.63;;;;;;;;;;10315754;28;20053;-78
2023/02/19 07:32:01;;;;;;;13.83;5.37;;;;;;;;;;10308468;28;20106;-76
2023/02/19 07:37:01;;;;;;;31.63;8.63;;;;;;;;;;10302759;28;20045;-76
2023/02/19 07:42:16;;;;;;;13.85;5.30;;;;;;;;;;10299158;28;20608;-79
2023/02/19 07:47:17;;;;;;;12.52;5.90;;;;;;;;;;10308611;28;20046;-78
2023/02/19 07:52:17;;;;;;;7.28;4.78;;;;;;;;;;10326752;28;20133;-74
2023/02/19 07:57:17;;;;;;;14.70;6.05;;;;;;;;;;10311602;28;20035;-73
2023/02/19 08:07:38;;;;;;;11.48;5.70;;;;;;;;;;10300539;28;20035;-77
2023/02/19 08:17:57;;;;;;;13.40;5.68;;;;;;;;;;10306363;28;20030;-75
2023/02/19 08:22:57;;;;;;;14.80;5.60;;;;;;;;;;10329864;28;20050;-78
2023/02/19 08:27:59;;;;;;;9.23;5.43;;;;;;;;;;10313650;28;20046;-77
2023/02/19 08:33:00;;;;;;;13.90;5.50;;;;;;;;;;10327979;28;20035;-75
2023/02/19 08:38:00;;;;;;;15.00;5.47;;;;;;;;;;10323759;28;20029;-79
2023/02/19 08:43:02;;;;;;;17.48;5.47;;;;;;;;;;10318734;28;20029;-82
2023/02/19 08:48:02;;;;;;;12.60;5.63;;;;;;;;;;10335397;28;20026;-85
2023/02/19 08:53:03;;;;;;;10.23;5.53;;;;;;;;;;10304217;28;20022;-78
2023/02/19 08:58:04;;;;;;;10.23;5.00;;;;;;;;;;10344280;28;20026;-81
2023/02/19 09:03:05;;;;;;;18.55;5.20;;;;;;;;;;10346224;28;20042;-78
2023/02/19 09:08:05;;;;;;;13.27;6.00;;;;;;;;;;10336916;28;20021;-79
2023/02/19 09:13:06;;;;;;;14.18;5.57;;;;;;;;;;10334869;28;20033;-75
2023/02/19 09:18:06;;;;;;;5.93;3.30;;;;;;;;;;10325978;28;20400;-77
2023/02/19 09:23:07;;;;;;;12.02;4.70;;;;;;;;;;10325645;28;20136;-77
2023/02/19 09:28:07;;;;;;;11.43;3.85;;;;;;;;;;10325934;28;20092;-76
2023/02/19 09:33:09;;;;;;;8.95;3.42;;;;;;;;;;10343334;28;20038;-81
2023/02/19 09:38:09;;;;;;;5.65;3.35;;;;;;;;;;10302005;28;20169;-78
2023/02/19 09:43:17;;;;;;;9.43;3.65;;;;;;;;;;10324263;28;20610;-76
2023/02/19 09:48:17;;;;;;;;;;;;;;;;;;10324261;28;20580;-76
2023/02/19 09:53:20;;;;;;;6.90;4.78;;;;;;;;;;10324179;28;19916;-77
2023/02/19 09:58:26;;;;;;;6.45;3.88;;;;;;;;;;10325579;28;20113;-80
2023/02/19 10:03:33;;;;;;;6.43;3.88;;;;;;;;;;10323180;28;20050;-77
2023/02/19 10:08:34;;;;;;;6.23;2.90;;;;;;;;;;10339850;28;20145;-77
2023/02/19 10:13:36;;;;;;;7.93;3.10;;;;;;;;;;10350732;28;20455;-77
2023/02/19 10:18:41;;;;;;;10.50;3.03;;;;;;;;;;10367460;28;20068;-79
2023/02/19 10:23:42;;;;;;;12.85;3.95;;;;;;;;;;10344797;28;20444;-79
2023/02/19 10:28:42;;;;;;;8.13;2.90;;;;;;;;;;10363848;28;20032;-76
2023/02/19 10:33:48;;;;;;;7.68;3.50;;;;;;;;;;10346781;28;20030;-81
2023/02/19 10:38:49;;;;;;;6.88;3.17;;;;;;;;;;10346625;28;20018;-77
2023/02/19 10:43:51;;;;;;;6.88;2.88;;;;;;;;;;10347128;28;20416;-81
2023/02/19 10:48:53;;;;;;;7.50;3.67;;;;;;;;;;10346203;28;20022;-80
2023/02/19 10:54:02;;;;;;;10.50;3.80;;;;;;;;;;10347981;28;20504;-83
2023/02/19 10:59:14;;;;;;;6.00;3.20;;;;;;;;;;10344813;28;20033;-77
2023/02/19 11:04:17;;;;;;;8.55;3.30;;;;;;;;;;10345916;28;20081;-72
2023/02/19 11:09:20;;;;;;;5.55;2.80;;;;;;;;;;10345774;28;20096;-82
2023/02/19 11:14:22;;;;;;;7.20;2.97;;;;;;;;;;10346773;28;20144;-81
2023/02/19 11:19:37;;;;;;;8.30;3.05;;;;;;;;;;10348493;28;20050;-77
2023/02/19 11:24:39;;;;;;;5.28;3.05;;;;;;;;;;10349272;28;20121;-75
2023/02/19 11:29:39;;;;;;;6.60;2.92;;;;;;;;;;10345675;28;20022;-79
2023/02/19 11:34:39;;;;;;;8.38;3.58;;;;;;;;;;10327429;28;20428;-74
2023/02/19 11:39:41;;;;;;;7.43;3.00;;;;;;;;;;10345989;28;20021;-80
2023/02/19 11:45:05;;;;;;;9.60;3.30;;;;;;;;;;10337896;28;20037;-76
2023/02/19 11:50:18;;;;;;;6.28;3.03;;;;;;;;;;10352724;28;20030;-78
2023/02/19 11:55:33;;;;;;;6.90;3.78;;;;;;;;;;10346432;28;20655;-77
2023/02/19 12:00:40;;;;;;;6.88;3.92;;;;;;;;;;10336592;28;20018;-77
2023/02/19 12:06:03;;;;;;;8.95;3.60;;;;;;;;;;10312894;28;20508;-79
2023/02/19 12:11:03;;;;;;;9.10;3.88;;;;;;;;;;10304345;28;20033;-75
2023/02/19 12:16:09;;;;;;;8.82;4.20;;;;;;;;;;10328132;28;20030;-79
2023/02/19 12:21:28;;;;;;;7.13;3.55;;;;;;;;;;10343403;28;20053;-80
2023/02/19 12:26:33;;;;;;;9.60;4.60;;;;;;;;;;10344765;28;20037;-77
2023/02/19 12:31:51;;;;;;;23.55;4.38;;;;;;;;;;10343592;28;20025;-80
2023/02/19 12:36:57;;;;;;;12.98;5.80;;;;;;;;;;10344018;28;20026;-82
2023/02/19 12:42:04;;;;;;;7.93;4.03;;;;;;;;;;10342251;28;20022;-75
2023/02/19 12:47:05;;;;;;;9.93;4.15;;;;;;;;;;10344245;28;20021;-80
2023/02/19 12:52:13;;;;;;;7.32;4.20;;;;;;;;;;10328264;28;20443;-77
2023/02/19 12:57:13;;;;;;;;;;;;;;;;;;10363430;28;20038;-76
2023/02/19 13:02:17;;;;;;;6.57;4.40;;;;;;;;;;10360422;28;20287;-74
2023/02/19 13:07:30;;;;;;;9.77;3.47;;;;;;;;;;10357002;28;20476;-80
2023/02/19 13:12:42;;;;;;;8.85;3.72;;;;;;;;;;10381545;28;20034;-82
2023/02/19 13:17:42;;;;;;;5.93;3.85;;;;;;;;;;10337793;28;20025;-74
2023/02/19 13:28:25;;;;;;;6.45;3.50;;;;;;;;;;10348041;28;20065;-77
2023/02/19 13:33:32;;;;;;;7.00;3.55;;;;;;;;;;10357185;28;20578;-79
2023/02/19 13:38:43;;;;;;;5.28;3.47;;;;;;;;;;10343686;28;20034;-80
2023/02/19 13:43:45;;;;;;;8.00;3.38;;;;;;;;;;10348342;28;20107;-80
2023/02/19 13:48:46;;;;;;;6.50;3.83;;;;;;;;;;10350139;28;20029;-74
2023/02/19 13:53:50;;;;;;;7.20;3.67;;;;;;;;;;10350878;28;20030;-78
2023/02/19 13:58:52;;;;;;;5.68;3.03;;;;;;;;;;10347800;28;20030;-82
2023/02/19 14:04:05;;;;;;;5.35;3.40;;;;;;;;;;10348929;28;20030;-76
2023/02/19 14:09:25;;;;;;;9.32;3.97;;;;;;;;;;10346959;28;20113;-79
2023/02/19 14:14:27;;;;;;;8.63;3.55;;;;;;;;;;10348303;28;20033;-78
2023/02/19 14:19:46;;;;;;;9.90;4.07;;;;;;;;;;10346226;28;20052;-75
2023/02/19 14:24:47;;;;;;;10.23;5.47;;;;;;;;;;10322635;28;20547;-74
2023/02/19 14:29:47;;;;;;;13.63;4.82;;;;;;;;;;10363258;28;20022;-77
2023/02/19 14:34:48;;;;;;;12.63;3.90;;;;;;;;;;10362600;28;20026;-76
2023/02/19 14:39:50;;;;;;;6.33;3.97;;;;;;;;;;10345917;28;20513;-75
2023/02/19 14:44:55;;;;;;;7.07;3.72;;;;;;;;;;10344971;28;20691;-77
2023/02/19 14:50:01;;;;;;;8.85;3.67;;;;;;;;;;10343982;28;20022;-76
2023/02/19 14:55:04;;;;;;;11.55;4.03;;;;;;;;;;10344846;28;20018;-76
2023/02/19 15:00:17;;;;;;;9.23;3.75;;;;;;;;;;10345323;28;20025;-77
2023/02/19 15:05:22;;;;;;;7.82;3.95;;;;;;;;;;10384336;22;20056;-77
2023/02/19 15:10:23;;;;;;;10.25;4.40;;;;;;;;;;10382057;28;20034;-77
2023/02/19 15:15:24;;;;;;;11.20;5.35;;;;;;;;;;10380273;28;20025;-76
2023/02/19 15:20:26;;;;;;;8.68;4.10;;;;;;;;;;10381397;28;20029;-76
2023/02/19 15:25:31;;;;;;;9.10;3.83;;;;;;;;;;10383270;28;20052;-76
2023/02/19 15:30:31;;;;;;;8.07;4.43;;;;;;;;;;10399284;28;20469;-76
2023/02/19 15:35:32;;;;;;;12.83;4.30;;;;;;;;;;10350957;28;20056;-77
2023/02/19 15:40:32;;;;;;;9.63;4.70;;;;;;;;;;10350325;28;20105;-79
2023/02/19 15:45:45;;;;;;;11.30;6.03;;;;;;;;;;10350100;28;20526;-84
2023/02/19 15:50:51;;;;;;;12.60;5.50;;;;;;;;;;10403516;28;20562;-76
2023/02/19 15:55:58;;;;;;;10.27;4.55;;;;;;;;;;10413916;28;20106;-81
2023/02/19 16:01:00;;;;;;;13.57;4.53;;;;;;;;;;10364984;22;20070;-76
2023/02/19 16:06:01;;;;;;;11.90;5.95;;;;;;;;;;10314339;28;20105;-76
2023/02/19 16:11:02;;;;;;;16.50;6.85;;;;;;;;;;10276455;28;20037;-73
2023/02/19 16:16:19;;;;;;;17.83;6.65;;;;;;;;;;10276558;28;20532;-74
2023/02/19 16:21:21;;;;;;;18.23;6.05;;;;;;;;;;10292939;28;20154;-73
2023/02/19 16:26:21;;;;;;;10.50;5.47;;;;;;;;;;10260660;28;20553;-72
2023/02/19 16:31:22;;;;;;;20.73;7.20;;;;;;;;;;10238168;28;20038;-73
2023/02/19 16:36:31;;;;;;;18.52;8.10;;;;;;;;;;10273435;28;20117;-73
2023/02/19 16:41:38;;;;;;;24.30;8.20;;;;;;;;;;10253481;28;20447;-74
2023/02/19 16:46:39;;;;;;;21.33;8.10;;;;;;;;;;10275060;28;20501;-79
2023/02/19 16:51:40;;;;;;;12.75;6.75;;;;;;;;;;10275403;28;20029;-77
2023/02/19 16:56:40;;;;;;;21.37;7.37;;;;;;;;;;10264945;28;20023;-74
2023/02/19 17:01:40;;;;;;;16.90;6.63;;;;;;;;;;10290554;28;20057;-78
2023/02/19 17:06:41;;;;;;;20.63;6.50;;;;;;;;;;10257324;28;20034;-74
2023/02/19 17:11:41;;;;;;;12.30;5.47;;;;;;;;;;10259283;28;20054;-75
2023/02/19 17:16:42;;;;;;;25.20;8.02;;;;;;;;;;10258818;28;20034;-78
2023/02/19 17:21:43;;;;;;;17.85;8.25;;;;;;;;;;10266858;28;20096;-73
2023/02/19 17:26:44;;;;;;;31.67;7.97;;;;;;;;;;10266625;28;20054;-74
2023/02/19 17:31:44;;;;;;;23.77;8.83;;;;;;;;;;10274951;28;20851;-74
2023/02/19 17:36:46;;;;;;;17.98;6.75;;;;;;;;;;10269260;28;20286;-76
2023/02/19 17:41:47;;;;;;;10.93;6.15;;;;;;;;;;10285143;28;20473;-79
2023/02/19 17:46:47;;;;;;;16.65;5.22;;;;;;;;;;10265953;28;20097;-74
2023/02/19 17:51:47;;;;;;;23.70;6.43;;;;;;;;;;10284485;28;20473;-79
2023/02/19 17:56:48;;;;;;;13.77;5.97;;;;;;;;;;10282494;28;20042;-72
2023/02/19 18:01:48;;;;;;;17.90;7.55;;;;;;;;;;10272456;28;20607;-78
2023/02/19 18:06:48;;;;;;;18.43;7.27;;;;;;;;;;10289536;28;20034;-71
2023/02/19 18:11:54;;;;;;;14.17;7.43;;;;;;;;;;10285079;28;20034;-77
2023/02/19 18:16:55;;;;;;;15.18;6.40;;;;;;;;;;10280105;28;20332;-81
2023/02/19 18:21:55;;;;;;;21.23;7.53;;;;;;;;;;10263988;28;20095;-78
2023/02/19 18:26:55;;;;;;;12.15;6.07;;;;;;;;;;10283285;28;20023;-78
2023/02/19 18:31:55;;;;;;;14.53;7.83;;;;;;;;;;10267416;28;20122;-75
2023/02/19 18:36:56;;;;;;;14.00;7.85;;;;;;;;;;10262014;28;20023;-78
2023/02/19 18:41:57;;;;;;;14.80;6.72;;;;;;;;;;10263414;28;20042;-74
2023/02/19 18:46:57;;;;;;;21.70;8.60;;;;;;;;;;10280838;28;20026;-79
2023/02/19 18:52:00;;;;;;;18.97;9.10;;;;;;;;;;10263995;28;20019;-80
2023/02/19 18:57:02;;;;;;;22.98;9.38;;;;;;;;;;10279498;28;20037;-76
2023/02/19 19:02:05;;;;;;;33.17;11.38;;;;;;;;;;10262922;28;20066;-75
2023/02/19 19:07:06;;;;;;;29.67;11.88;;;;;;;;;;10253984;28;20030;-72
2023/02/19 19:12:06;;;;;;;27.63;10.60;;;;;;;;;;10265165;28;20537;-75
2023/02/19 19:17:07;;;;;;;32.22;13.07;;;;;;;;;;10263483;28;20027;-74
2023/02/19 19:22:07;;;;;;;25.17;10.77;;;;;;;;;;10261040;28;20485;-78
2023/02/19 19:27:07;;;;;;;30.95;9.50;;;;;;;;;;10260401;28;20030;-75
2023/02/19 19:32:07;;;;;;;16.92;7.32;;;;;;;;;;10261747;28;20031;-72
2023/02/19 19:37:08;;;;;;;15.00;6.90;;;;;;;;;;10260635;28;20058;-74
2023/02/19 19:42:08;;;;;;;14.60;7.97;;;;;;;;;;10259769;28;20409;-81
2023/02/19 19:47:10;;;;;;;16.80;7.43;;;;;;;;;;10276041;28;20038;-81
2023/02/19 19:52:10;;;;;;;11.25;7.00;;;;;;;;;;10268655;28;20046;-78
2023/02/19 19:57:11;;;;;;;18.95;9.45;;;;;;;;;;10280314;28;20097;-79
2023/02/19 20:02:11;;;;;;;18.80;8.32;;;;;;;;;;10279861;28;20103;-74
2023/02/19 20:07:11;;;;;;;13.73;7.00;;;;;;;;;;10259253;28;20067;-73
2023/02/19 20:12:12;;;;;;;16.48;6.55;;;;;;;;;;10282250;28;20037;-75
2023/02/19 20:17:12;;;;;;;12.43;5.43;;;;;;;;;;10268533;28;20034;-76
2023/02/19 20:22:12;;;;;;;16.13;6.40;;;;;;;;;;10269045;28;20033;-78
2023/02/19 20:27:13;;;;;;;11.02;6.00;;;;;;;;;;10265865;28;20026;-78
2023/02/19 20:32:17;;;;;;;10.97;7.03;;;;;;;;;;10266705;28;20027;-81
2023/02/19 20:37:17;;;;;;;15.38;6.10;;;;;;;;;;10261146;28;20649;-78
2023/02/19 20:42:17;;;;;;;13.20;6.95;;;;;;;;;;10258873;28;20239;-77
2023/02/19 20:47:18;;;;;;;14.33;6.53;;;;;;;;;;10258478;28;20039;-79
2023/02/19 20:52:19;;;;;;;16.52;7.82;;;;;;;;;;10281626;28;20031;-81
2023/02/19 20:57:24;;;;;;;14.18;7.13;;;;;;;;;;10274214;28;20564;-79
2023/02/19 21:02:28;;;;;;;16.95;7.07;;;;;;;;;;10243656;28;20110;-80
2023/02/19 21:07:29;;;;;;;13.57;7.22;;;;;;;;;;10249647;28;20108;-82
2023/02/19 21:12:32;;;;;;;14.63;7.22;;;;;;;;;;10248476;28;20039;-75
2023/02/19 21:17:33;;;;;;;19.92;7.95;;;;;;;;;;10233770;28;20519;-78
2023/02/19 21:22:33;;;;;;;17.23;7.63;;;;;;;;;;10246256;28;20034;-79
2023/02/19 21:27:34;;;;;;;20.35;8.02;;;;;;;;;;10226020;29;20027;-72
2023/02/19 21:32:34;;;;;;;20.67;9.13;;;;;;;;;;10234106;28;20027;-80
2023/02/19 21:37:40;;;;;;;18.17;8.07;;;;;;;;;;10247857;29;20015;-79
2023/02/19 21:42:42;;;;;;;17.02;7.68;;;;;;;;;;10238020;28;20381;-78
2023/02/19 21:47:46;;;;;;;18.90;7.68;;;;;;;;;;10242940;28;20022;-79
2023/02/19 21:52:48;;;;;;;17.73;7.40;;;;;;;;;;10236831;28;20493;-80
2023/02/19 21:57:48;;;;;;;11.93;7.22;;;;;;;;;;10228854;28;20317;-79
2023/02/19 22:02:48;;;;;;;14.93;8.10;;;;;;;;;;10240209;28;20050;-77
2023/02/19 22:07:49;;;;;;;16.50;8.60;;;;;;;;;;10246797;28;20060;-75
2023/02/19 22:12:49;;;;;;;13.85;7.72;;;;;;;;;;10225955;28;20490;-78
2023/02/19 22:17:49;;;;;;;18.98;7.88;;;;;;;;;;10252687;28;20026;-74
2023/02/19 22:22:49;;;;;;;16.27;7.53;;;;;;;;;;10246133;28;20124;-79
2023/02/19 22:27:50;;;;;;;18.63;8.48;;;;;;;;;;10245017;28;20089;-73
2023/02/19 22:32:50;;;;;;;14.97;7.40;;;;;;;;;;10247085;28;20033;-83
2023/02/19 22:37:50;;;;;;;14.55;7.55;;;;;;;;;;10248017;28;20034;-81
2023/02/19 22:42:52;;;;;;;19.40;9.18;;;;;;;;;;10259186;28;20103;-82
2023/02/19 22:47:54;;;;;;;14.52;8.00;;;;;;;;;;10209239;28;20024;-78
2023/02/19 22:52:54;;;;;;;18.58;8.70;;;;;;;;;;10253968;28;20029;-77
2023/02/19 22:57:55;;;;;;;22.20;9.03;;;;;;;;;;10228467;28;20019;-76
2023/02/19 23:02:55;;;;;;;16.83;8.45;;;;;;;;;;10272455;28;20043;-78
2023/02/19 23:07:55;;;;;;;16.08;9.20;;;;;;;;;;10280983;28;20102;-75
2023/02/19 23:12:56;;;;;;;14.85;8.48;;;;;;;;;;10270522;28;20027;-74
2023/02/19 23:17:56;;;;;;;16.10;9.07;;;;;;;;;;10280909;28;20018;-75
2023/02/19 23:22:56;;;;;;;19.08;9.40;;;;;;;;;;10282964;28;20027;-78
2023/02/19 23:27:57;;;;;;;15.80;9.63;;;;;;;;;;10281186;28;20034;-79
2023/02/19 23:32:57;;;;;;;15.63;9.45;;;;;;;;;;10279627;28;20042;-79
2023/02/19 23:37:59;;;;;;;17.25;10.18;;;;;;;;;;10280234;28;20023;-78
2023/02/19 23:42:59;;;;;;;16.85;9.48;;;;;;;;;;10280957;28;20093;-79
2023/02/19 23:48:00;;;;;;;17.48;10.35;;;;;;;;;;10286545;28;20457;-77
2023/02/19 23:53:00;;;;;;;15.20;9.48;;;;;;;;;;10281354;28;20049;-73
2023/02/19 23:58:00;;;;;;;17.37;9.17;;;;;;;;;;10279708;28;20027;-77
